createdAt,value
2019-05-29T00:00:43.555Z,8.50
2019-05-29T00:03:12.505Z,8.50
2019-05-29T00:05:41.423Z,8.50
2019-05-29T00:08:10.362Z,8.40
2019-05-29T00:10:38.998Z,8.40
2019-05-29T00:13:08.195Z,8.30
2019-05-29T00:15:36.703Z,8.30
2019-05-29T00:18:06.193Z,8.30
2019-05-29T00:20:34.703Z,8.20
2019-05-29T00:23:03.442Z,8.20
2019-05-29T00:25:31.844Z,8.20
2019-05-29T00:28:00.243Z,8.10
2019-05-29T00:30:28.638Z,8.10
2019-05-29T00:32:57.038Z,8.00
2019-05-29T00:35:25.460Z,8.00
2019-05-29T00:37:53.858Z,8.00
2019-05-29T00:40:22.338Z,8.00
2019-05-29T00:42:50.751Z,7.90
2019-05-29T00:45:19.303Z,7.90
2019-05-29T00:47:47.773Z,7.90
2019-05-29T00:50:16.516Z,7.90
2019-05-29T00:52:44.940Z,7.80
2019-05-29T00:55:14.700Z,7.80
2019-05-29T00:57:43.167Z,7.70
2019-05-29T01:00:11.728Z,7.70
2019-05-29T01:02:40.140Z,7.70
2019-05-29T01:05:09.831Z,7.70
2019-05-29T01:07:38.588Z,7.60
2019-05-29T01:10:08.526Z,7.60
2019-05-29T01:12:36.935Z,7.60
2019-05-29T01:15:08.480Z,7.50
2019-05-29T01:17:36.883Z,7.50
2019-05-29T01:20:06.653Z,7.50
2019-05-29T01:22:35.238Z,7.50
2019-05-29T01:25:03.920Z,7.50
2019-05-29T01:27:51.654Z,7.50
2019-05-29T01:30:21.208Z,7.50
2019-05-29T01:32:49.763Z,7.40
2019-05-29T01:35:18.173Z,7.40
2019-05-29T01:37:46.579Z,7.40
2019-05-29T01:40:21.159Z,7.30
2019-05-29T01:42:45.606Z,7.30
2019-05-29T01:45:15.418Z,7.30
2019-05-29T01:47:43.916Z,7.30
2019-05-29T01:50:12.696Z,7.20
2019-05-29T01:52:41.147Z,7.20
2019-05-29T01:55:09.902Z,7.20
2019-05-29T01:57:38.303Z,7.20
2019-05-29T02:00:08.529Z,7.10
2019-05-29T02:02:36.950Z,7.10
2019-05-29T02:05:06.386Z,7.10
2019-05-29T02:07:34.777Z,7.10
2019-05-29T02:10:04.904Z,7.00
2019-05-29T02:12:33.298Z,7.00
2019-05-29T02:15:01.724Z,7.00
2019-05-29T02:17:30.215Z,7.00
2019-05-29T02:19:58.612Z,7.00
2019-05-29T02:22:27.134Z,7.00
2019-05-29T02:24:55.622Z,6.90
2019-05-29T02:27:24.043Z,6.90
2019-05-29T02:29:52.451Z,6.90
2019-05-29T02:32:21.371Z,6.90
2019-05-29T02:34:49.878Z,6.80
2019-05-29T02:37:18.333Z,6.80
2019-05-29T02:39:46.785Z,6.80
2019-05-29T02:42:15.206Z,6.80
2019-05-29T02:44:43.612Z,6.70
2019-05-29T02:47:12.139Z,6.70
2019-05-29T02:49:40.545Z,6.80
2019-05-29T02:52:08.939Z,6.70
2019-05-29T02:54:37.354Z,6.70
2019-05-29T02:57:05.807Z,6.70
2019-05-29T02:59:34.241Z,6.70
2019-05-29T03:02:02.648Z,6.70
2019-05-29T03:04:32.818Z,6.60
2019-05-29T03:07:01.384Z,6.60
2019-05-29T03:09:30.712Z,6.60
2019-05-29T03:12:00.416Z,6.60
2019-05-29T03:14:29.648Z,6.60
2019-05-29T03:16:58.750Z,6.60
2019-05-29T03:19:28.015Z,6.50
2019-05-29T03:21:56.584Z,6.50
2019-05-29T03:24:26.690Z,6.50
2019-05-29T03:26:55.633Z,6.50
2019-05-29T03:29:25.759Z,6.50
2019-05-29T03:31:54.200Z,6.40
2019-05-29T03:34:22.627Z,6.50
2019-05-29T03:36:51.151Z,6.40
2019-05-29T03:39:19.547Z,6.40
2019-05-29T03:41:47.944Z,6.50
2019-05-29T03:44:16.370Z,6.40
2019-05-29T03:46:46.213Z,6.40
2019-05-29T03:49:14.864Z,6.40
2019-05-29T03:51:43.282Z,6.40
2019-05-29T03:54:11.712Z,6.40
2019-05-29T03:56:40.105Z,6.40
2019-05-29T03:59:08.540Z,6.40
2019-05-29T04:01:37.470Z,6.40
2019-05-29T04:04:06.073Z,6.50
2019-05-29T04:06:35.554Z,6.50
2019-05-29T04:09:06.369Z,6.50
2019-05-29T04:11:37.670Z,6.60
2019-05-29T04:14:06.439Z,6.60
2019-05-29T04:16:52.823Z,6.60
2019-05-29T04:19:06.439Z,6.60
2019-05-29T04:21:38.397Z,6.60
2019-05-29T04:24:06.993Z,6.70
2019-05-29T04:26:38.460Z,6.70
2019-05-29T04:29:07.015Z,6.70
2019-05-29T04:31:36.577Z,6.70
2019-05-29T04:34:05.471Z,6.80
2019-05-29T04:36:34.870Z,6.80
2019-05-29T04:39:05.162Z,6.80
2019-05-29T04:41:34.702Z,6.80
2019-05-29T04:44:03.446Z,6.80
2019-05-29T04:46:31.857Z,6.90
2019-05-29T04:49:00.284Z,6.90
2019-05-29T04:51:29.263Z,7.00
2019-05-29T04:53:58.046Z,7.00
2019-05-29T04:56:26.459Z,7.00
2019-05-29T04:58:54.969Z,7.00
2019-05-29T05:01:23.380Z,7.10
2019-05-29T05:06:19.981Z,7.10
2019-05-29T05:08:48.370Z,7.20
2019-05-29T05:11:17.313Z,7.20
2019-05-29T05:13:45.980Z,7.20
2019-05-29T05:16:14.403Z,7.30
2019-05-29T05:18:42.805Z,7.30
2019-05-29T05:21:11.220Z,7.40
2019-05-29T05:23:40.562Z,7.50
2019-05-29T05:26:09.162Z,7.60
2019-05-29T05:28:38.598Z,7.70
2019-05-29T05:31:07.162Z,8.00
2019-05-29T05:33:36.641Z,9.10
2019-05-29T05:36:05.224Z,10.60
2019-05-29T05:38:34.615Z,12.30
2019-05-29T05:41:03.266Z,14.00
2019-05-29T05:43:32.776Z,15.50
2019-05-29T05:46:01.256Z,16.60
2019-05-29T05:48:30.884Z,17.80
2019-05-29T05:50:59.347Z,18.80
2019-05-29T05:53:27.773Z,19.90
2019-05-29T05:55:56.448Z,20.70
2019-05-29T05:58:24.850Z,21.40
2019-05-29T06:00:53.263Z,22.20
2019-05-29T06:03:21.704Z,22.90
2019-05-29T06:05:50.119Z,23.40
2019-05-29T06:08:18.587Z,23.90
2019-05-29T06:10:47.365Z,24.30
2019-05-29T06:13:15.774Z,24.50
2019-05-29T06:15:44.535Z,24.80
2019-05-29T06:18:21.051Z,25.00
2019-05-29T06:20:43.257Z,25.20
2019-05-29T06:23:11.796Z,25.40
2019-05-29T06:25:40.763Z,25.50
2019-05-29T06:28:10.538Z,25.60
2019-05-29T06:30:40.748Z,25.80
2019-05-29T06:33:09.109Z,25.90
2019-05-29T06:35:37.649Z,25.90
2019-05-29T06:38:06.022Z,25.80
2019-05-29T06:40:38.326Z,25.80
2019-05-29T06:43:11.161Z,25.70
2019-05-29T06:45:38.273Z,25.90
2019-05-29T06:48:08.652Z,26.00
2019-05-29T06:50:37.434Z,25.80
2019-05-29T06:53:06.020Z,25.60
2019-05-29T06:55:35.670Z,25.60
2019-05-29T06:58:04.380Z,25.70
2019-05-29T07:00:35.664Z,25.70
2019-05-29T07:03:02.990Z,25.60
2019-05-29T07:05:31.473Z,26.00
2019-05-29T07:08:17.046Z,26.00
2019-05-29T07:10:30.076Z,25.90
2019-05-29T07:12:58.470Z,25.80
2019-05-29T07:15:26.893Z,25.70
2019-05-29T07:17:55.278Z,25.60
2019-05-29T07:20:24.442Z,25.70
2019-05-29T07:22:55.925Z,25.60
2019-05-29T07:25:24.342Z,25.70
2019-05-29T07:27:52.822Z,25.70
2019-05-29T07:30:21.960Z,25.50
2019-05-29T07:32:57.634Z,25.20
2019-05-29T07:35:20.516Z,24.90
2019-05-29T07:37:48.945Z,24.80
2019-05-29T07:40:18.414Z,24.70
2019-05-29T07:42:54.965Z,24.70
2019-05-29T07:45:17.383Z,24.90
2019-05-29T07:47:46.706Z,25.10
2019-05-29T07:50:15.722Z,25.20
2019-05-29T07:52:45.368Z,25.30
2019-05-29T07:55:14.647Z,25.40
2019-05-29T07:57:43.076Z,25.60
2019-05-29T08:00:13.078Z,25.80
2019-05-29T08:02:41.572Z,25.80
2019-05-29T08:05:10.536Z,25.60
2019-05-29T08:07:39.394Z,25.70
2019-05-29T08:10:08.619Z,25.80
2019-05-29T08:12:41.708Z,25.80
2019-05-29T08:15:07.599Z,25.80
2019-05-29T08:17:36.072Z,25.80
2019-05-29T08:20:07.975Z,25.60
2019-05-29T08:22:36.736Z,25.60
2019-05-29T08:25:06.296Z,25.50
2019-05-29T08:27:34.999Z,25.30
2019-05-29T08:30:08.466Z,25.40
2019-05-29T08:32:36.897Z,25.20
2019-05-29T08:35:08.323Z,25.10
2019-05-29T08:37:36.745Z,24.90
2019-05-29T08:40:06.491Z,24.80
2019-05-29T08:42:34.925Z,24.60
2019-05-29T08:45:04.856Z,24.40
2019-05-29T08:47:33.276Z,24.30
2019-05-29T08:50:17.551Z,24.20
2019-05-29T08:52:32.088Z,24.30
2019-05-29T08:55:00.507Z,24.30
2019-05-29T08:57:28.935Z,24.40
2019-05-29T08:59:57.685Z,24.60
2019-05-29T09:02:26.220Z,24.40
2019-05-29T09:04:54.988Z,24.30
2019-05-29T09:07:23.411Z,24.30
2019-05-29T09:09:53.235Z,24.20
2019-05-29T09:12:21.938Z,24.30
2019-05-29T09:14:50.361Z,24.10
2019-05-29T09:17:18.784Z,23.80
2019-05-29T09:19:47.194Z,23.60
2019-05-29T09:22:16.492Z,23.30
2019-05-29T09:24:45.097Z,23.20
2019-05-29T09:27:14.473Z,23.00
2019-05-29T09:29:43.779Z,22.80
2019-05-29T09:32:13.491Z,22.70
2019-05-29T09:34:42.415Z,22.50
2019-05-29T09:37:10.974Z,22.40
2019-05-29T09:39:39.563Z,22.10
2019-05-29T09:42:08.097Z,22.10
2019-05-29T09:44:39.461Z,22.00
2019-05-29T09:47:06.756Z,22.00
2019-05-29T09:49:35.164Z,21.70
2019-05-29T09:52:04.158Z,21.60
2019-05-29T09:54:32.751Z,21.50
2019-05-29T09:57:01.345Z,21.40
2019-05-29T09:59:31.020Z,21.30
2019-05-29T10:02:00.339Z,21.30
2019-05-29T10:04:29.566Z,21.20
2019-05-29T10:06:57.987Z,21.20
2019-05-29T10:09:26.491Z,21.20
2019-05-29T10:11:58.592Z,21.20
2019-05-29T10:14:25.282Z,21.10
2019-05-29T10:16:56.145Z,21.10
2019-05-29T10:19:23.821Z,21.00
2019-05-29T10:21:52.263Z,21.00
2019-05-29T10:24:20.723Z,20.90
2019-05-29T10:26:49.128Z,20.90
2019-05-29T10:29:17.549Z,21.00
2019-05-29T10:31:47.723Z,21.00
2019-05-29T10:34:16.240Z,21.00
2019-05-29T10:36:48.270Z,21.00
2019-05-29T10:39:14.910Z,21.00
2019-05-29T10:41:44.595Z,20.90
2019-05-29T10:44:13.341Z,20.90
2019-05-29T10:46:41.824Z,20.90
2019-05-29T10:49:10.264Z,20.90
2019-05-29T10:51:56.980Z,20.80
2019-05-29T10:54:08.878Z,20.70
2019-05-29T10:56:37.287Z,20.50
2019-05-29T10:59:05.961Z,20.50
2019-05-29T11:01:34.744Z,20.60
2019-05-29T11:04:03.153Z,20.60
2019-05-29T11:06:31.558Z,20.40
2019-05-29T11:08:59.963Z,20.40
2019-05-29T11:11:28.384Z,20.40
2019-05-29T11:13:57.137Z,20.40
2019-05-29T11:16:25.688Z,20.40
2019-05-29T11:18:55.240Z,20.60
2019-05-29T11:21:24.110Z,20.50
2019-05-29T11:23:53.826Z,20.40
2019-05-29T11:26:22.528Z,20.30
2019-05-29T11:28:52.306Z,20.30
2019-05-29T11:31:20.960Z,20.50
2019-05-29T11:33:50.562Z,20.50
2019-05-29T11:36:19.237Z,20.50
2019-05-29T11:38:52.479Z,20.50
2019-05-29T11:41:26.488Z,20.50
2019-05-29T11:43:51.233Z,20.60
2019-05-29T11:46:19.638Z,20.60
2019-05-29T11:48:48.038Z,20.50
2019-05-29T11:51:16.508Z,20.60
2019-05-29T11:53:45.230Z,20.70
2019-05-29T11:56:13.639Z,20.60
2019-05-29T11:58:42.052Z,20.50
2019-05-29T12:01:10.470Z,20.40
2019-05-29T12:03:58.178Z,20.40
2019-05-29T12:06:09.079Z,20.40
2019-05-29T12:08:37.491Z,20.50
2019-05-29T12:11:07.141Z,20.60
2019-05-29T12:13:35.789Z,20.70
2019-05-29T12:16:04.281Z,20.90
2019-05-29T12:18:32.691Z,21.00
2019-05-29T12:21:01.764Z,21.00
2019-05-29T12:23:31.291Z,21.10
2019-05-29T12:26:16.683Z,21.20
2019-05-29T12:28:29.967Z,21.40
2019-05-29T12:30:59.061Z,21.50
2019-05-29T12:33:27.672Z,21.60
2019-05-29T12:35:59.124Z,21.60
2019-05-29T12:38:27.635Z,21.50
2019-05-29T12:40:57.584Z,21.40
2019-05-29T12:43:28.099Z,21.40
2019-05-29T12:45:57.709Z,21.40
2019-05-29T12:48:26.335Z,21.40
2019-05-29T12:50:56.035Z,21.40
2019-05-29T12:53:30.295Z,21.30
2019-05-29T12:55:56.117Z,21.30
2019-05-29T12:58:24.703Z,21.40
2019-05-29T13:00:54.437Z,21.50
2019-05-29T13:03:23.092Z,21.60
2019-05-29T13:05:51.518Z,21.80
2019-05-29T13:08:19.920Z,22.00
2019-05-29T13:10:48.337Z,22.00
2019-05-29T13:13:16.738Z,22.10
2019-05-29T13:15:45.443Z,22.10
2019-05-29T13:18:13.841Z,22.10
2019-05-29T13:20:42.255Z,22.10
2019-05-29T13:23:10.666Z,22.20
2019-05-29T13:25:39.165Z,22.40
2019-05-29T13:28:07.556Z,22.50
2019-05-29T13:30:35.962Z,22.60
2019-05-29T13:33:07.371Z,22.60
2019-05-29T13:35:34.512Z,22.60
2019-05-29T13:38:03.315Z,22.60
2019-05-29T13:40:31.897Z,22.70
2019-05-29T13:43:05.680Z,22.80
2019-05-29T13:45:30.435Z,22.90
2019-05-29T13:47:59.180Z,23.00
2019-05-29T13:50:27.744Z,23.10
2019-05-29T13:52:57.093Z,23.10
2019-05-29T13:55:25.634Z,23.10
2019-05-29T13:57:54.056Z,23.10
2019-05-29T14:00:33.752Z,23.00
2019-05-29T14:02:52.685Z,23.00
2019-05-29T14:05:21.160Z,22.90
2019-05-29T14:07:49.634Z,23.00
2019-05-29T14:10:18.381Z,23.10
2019-05-29T14:12:46.889Z,23.30
2019-05-29T14:15:15.751Z,23.40
2019-05-29T14:17:44.161Z,23.40
2019-05-29T14:20:13.514Z,23.30
2019-05-29T14:22:41.952Z,23.20
2019-05-29T14:25:11.665Z,23.00
2019-05-29T14:27:40.264Z,22.80
2019-05-29T14:30:10.624Z,22.80
2019-05-29T14:32:39.354Z,22.80
2019-05-29T14:35:10.436Z,22.90
2019-05-29T14:37:38.712Z,22.80
2019-05-29T14:40:08.013Z,22.70
2019-05-29T14:42:36.569Z,22.60
2019-05-29T14:45:08.446Z,22.60
2019-05-29T14:47:36.999Z,22.80
2019-05-29T14:50:09.568Z,23.00
2019-05-29T14:52:39.371Z,23.00
2019-05-29T14:55:09.360Z,22.80
2019-05-29T14:57:38.447Z,22.70
2019-05-29T15:00:20.967Z,22.60
2019-05-29T15:02:39.575Z,22.40
2019-05-29T15:05:09.740Z,22.30
2019-05-29T15:07:38.459Z,22.20
2019-05-29T15:10:19.783Z,22.30
2019-05-29T15:12:38.939Z,22.50
2019-05-29T15:15:08.969Z,22.60
2019-05-29T15:17:37.800Z,22.60
2019-05-29T15:20:10.407Z,22.60
2019-05-29T15:22:40.029Z,22.40
2019-05-29T15:25:18.469Z,22.20
2019-05-29T15:27:40.429Z,22.00
2019-05-29T15:30:11.313Z,21.90
2019-05-29T15:32:40.450Z,21.80
2019-05-29T15:35:14.428Z,21.90
2019-05-29T15:37:40.587Z,21.90
2019-05-29T15:40:11.142Z,21.80
2019-05-29T15:42:39.673Z,21.90
2019-05-29T15:45:10.144Z,22.00
2019-05-29T15:47:38.543Z,22.10
2019-05-29T15:50:11.577Z,22.20
2019-05-29T15:52:40.314Z,22.40
2019-05-29T15:55:24.888Z,22.60
2019-05-29T15:57:40.906Z,22.80
2019-05-29T16:00:11.573Z,22.80
2019-05-29T16:02:40.405Z,22.80
2019-05-29T16:05:10.873Z,22.80
2019-05-29T16:07:39.770Z,22.80
2019-05-29T16:10:13.068Z,22.80
2019-05-29T16:12:40.020Z,22.90
2019-05-29T16:15:11.047Z,22.80
2019-05-29T16:17:39.760Z,22.70
2019-05-29T16:20:10.343Z,22.60
2019-05-29T16:22:39.198Z,22.40
2019-05-29T16:25:08.276Z,22.20
2019-05-29T16:27:36.680Z,22.00
2019-05-29T16:30:11.226Z,22.00
2019-05-29T16:32:39.930Z,22.10
2019-05-29T16:35:09.088Z,22.20
2019-05-29T16:37:37.592Z,22.40
2019-05-29T16:40:08.887Z,22.50
2019-05-29T16:42:37.293Z,22.70
2019-05-29T16:45:08.463Z,22.70
2019-05-29T16:47:36.892Z,22.60
2019-05-29T16:50:08.700Z,22.50
2019-05-29T16:52:37.542Z,22.50
2019-05-29T16:55:06.588Z,22.50
2019-05-29T16:57:35.019Z,22.50
2019-05-29T17:00:07.520Z,22.60
2019-05-29T17:02:35.927Z,22.70
2019-05-29T17:05:06.315Z,22.80
2019-05-29T17:07:34.756Z,22.70
2019-05-29T17:10:04.842Z,22.70
2019-05-29T17:12:33.255Z,22.80
2019-05-29T17:15:01.682Z,22.80
2019-05-29T17:17:30.671Z,22.70
2019-05-29T17:19:59.196Z,22.50
2019-05-29T17:22:27.622Z,22.30
2019-05-29T17:24:56.043Z,22.10
2019-05-29T17:27:25.160Z,21.90
2019-05-29T17:29:53.761Z,21.90
2019-05-29T17:32:23.205Z,21.80
2019-05-29T17:34:51.783Z,21.70
2019-05-29T17:37:21.037Z,21.60
2019-05-29T17:39:49.675Z,21.60
2019-05-29T17:42:18.183Z,21.60
2019-05-29T17:44:46.678Z,21.60
2019-05-29T17:47:15.581Z,21.60
2019-05-29T17:49:44.361Z,21.50
2019-05-29T17:52:12.769Z,21.60
2019-05-29T17:54:41.170Z,21.60
2019-05-29T17:57:09.651Z,21.50
2019-05-29T17:59:38.116Z,21.50
2019-05-29T18:02:06.542Z,21.40
2019-05-29T18:04:34.969Z,21.30
2019-05-29T18:07:03.390Z,21.30
2019-05-29T18:09:31.874Z,21.20
2019-05-29T18:12:00.542Z,21.10
2019-05-29T18:14:28.960Z,21.00
2019-05-29T18:17:01.659Z,21.00
2019-05-29T18:19:30.101Z,21.00
2019-05-29T18:21:58.822Z,20.90
2019-05-29T18:24:28.048Z,20.90
2019-05-29T18:26:59.056Z,20.90
2019-05-29T18:29:26.867Z,20.90
2019-05-29T18:31:55.292Z,20.80
2019-05-29T18:34:25.115Z,20.80
2019-05-29T18:36:53.733Z,20.70
2019-05-29T18:39:22.223Z,20.60
2019-05-29T18:41:50.648Z,20.50
2019-05-29T18:44:19.074Z,20.40
2019-05-29T18:46:47.480Z,20.30
2019-05-29T18:49:15.995Z,20.20
2019-05-29T18:51:44.446Z,20.10
2019-05-29T18:54:12.924Z,19.90
2019-05-29T18:56:41.349Z,19.90
2019-05-29T18:59:09.757Z,19.80
2019-05-29T19:01:38.221Z,19.70
2019-05-29T19:04:06.644Z,19.70
2019-05-29T19:06:35.063Z,19.60
2019-05-29T19:09:05.171Z,19.50
2019-05-29T19:11:33.618Z,19.50
2019-05-29T19:14:02.033Z,19.40
2019-05-29T19:16:30.442Z,19.30
2019-05-29T19:18:58.859Z,19.20
2019-05-29T19:21:28.379Z,19.10
2019-05-29T19:23:59.589Z,19.00
2019-05-29T19:26:28.767Z,18.90
2019-05-29T19:28:57.344Z,18.80
2019-05-29T19:31:27.073Z,18.70
2019-05-29T19:33:55.650Z,18.70
2019-05-29T19:36:24.075Z,18.60
2019-05-29T19:38:52.486Z,18.40
2019-05-29T19:41:21.493Z,18.40
2019-05-29T19:43:50.185Z,18.30
2019-05-29T19:46:18.757Z,18.20
2019-05-29T19:48:47.173Z,18.10
2019-05-29T19:51:15.614Z,18.00
2019-05-29T19:53:44.114Z,17.90
2019-05-29T19:56:12.822Z,17.80
2019-05-29T19:58:41.294Z,17.70
2019-05-29T20:01:09.724Z,17.70
2019-05-29T20:03:39.438Z,17.60
2019-05-29T20:06:07.921Z,17.70
2019-05-29T20:08:39.400Z,17.60
2019-05-29T20:11:07.243Z,17.60
2019-05-29T20:13:35.876Z,17.60
2019-05-29T20:16:04.431Z,17.50
2019-05-29T20:18:34.064Z,17.50
2019-05-29T20:21:02.658Z,17.50
2019-05-29T20:23:32.487Z,17.40
2019-05-29T20:26:00.997Z,17.40
2019-05-29T20:28:30.083Z,17.40
2019-05-29T20:30:58.608Z,17.40
2019-05-29T20:33:27.029Z,17.40
2019-05-29T20:35:55.696Z,17.40
2019-05-29T20:38:24.107Z,17.40
2019-05-29T20:40:52.544Z,17.40
2019-05-29T20:43:20.958Z,17.40
2019-05-29T20:45:49.371Z,17.40
2019-05-29T20:48:17.807Z,17.50
2019-05-29T20:50:46.444Z,17.50
2019-05-29T20:53:14.900Z,17.40
2019-05-29T20:55:43.313Z,17.40
2019-05-29T20:58:23.992Z,17.40
2019-05-29T21:00:42.373Z,17.50
2019-05-29T21:03:10.992Z,17.40
2019-05-29T21:05:40.713Z,17.50
2019-05-29T21:08:09.312Z,17.50
2019-05-29T21:10:37.735Z,17.40
2019-05-29T21:13:06.135Z,17.40
2019-05-29T21:15:35.581Z,17.40
2019-05-29T21:18:04.157Z,17.40
2019-05-29T21:20:32.562Z,17.40
2019-05-29T21:23:00.979Z,17.40
2019-05-29T21:25:29.414Z,17.40
2019-05-29T21:27:57.828Z,17.40
2019-05-29T21:30:26.451Z,17.40
2019-05-29T21:32:55.154Z,17.40
2019-05-29T21:35:23.579Z,17.30
2019-05-29T21:37:52.018Z,17.30
2019-05-29T21:40:20.933Z,17.30
2019-05-29T21:42:49.434Z,17.30
2019-05-29T21:45:18.091Z,17.30
2019-05-29T21:47:47.303Z,17.30
2019-05-29T21:50:16.131Z,17.30
2019-05-29T21:52:45.583Z,17.30
2019-05-29T21:55:14.466Z,17.30
2019-05-29T21:57:45.570Z,17.30
2019-05-29T22:00:15.606Z,17.30
2019-05-29T22:02:44.512Z,17.30
2019-05-29T22:05:13.359Z,17.30
2019-05-29T22:07:42.777Z,17.30
2019-05-29T22:10:12.898Z,17.30
2019-05-29T22:12:41.282Z,17.30
2019-05-29T22:15:09.787Z,17.20
2019-05-29T22:17:38.267Z,17.20
2019-05-29T22:20:07.437Z,17.20
2019-05-29T22:22:35.880Z,17.20
2019-05-29T22:25:07.707Z,17.20
2019-05-29T22:27:37.186Z,17.20
2019-05-29T22:30:07.619Z,17.20
2019-05-29T22:32:36.053Z,17.20
2019-05-29T22:35:06.061Z,17.20
2019-05-29T22:37:34.555Z,17.20
2019-05-29T22:40:04.557Z,17.20
2019-05-29T22:42:32.981Z,17.20
2019-05-29T22:45:02.257Z,17.20
2019-05-29T22:47:30.879Z,17.20
2019-05-29T22:49:59.878Z,17.20
2019-05-29T22:52:28.387Z,17.20
2019-05-29T22:54:58.029Z,17.20
2019-05-29T22:57:26.664Z,17.20
2019-05-29T22:59:55.924Z,17.20
2019-05-29T23:02:24.517Z,17.20
2019-05-29T23:04:54.144Z,17.20
2019-05-29T23:07:22.730Z,17.20
2019-05-29T23:09:52.138Z,17.20
2019-05-29T23:12:20.643Z,17.20
2019-05-29T23:14:49.384Z,17.20
2019-05-29T23:17:17.843Z,17.10
2019-05-29T23:19:46.291Z,17.10
2019-05-29T23:22:14.714Z,17.10
2019-05-29T23:24:43.107Z,17.10
2019-05-29T23:27:11.532Z,17.10
2019-05-29T23:29:49.031Z,17.10
2019-05-29T23:32:10.173Z,17.10
2019-05-29T23:34:38.596Z,17.10
2019-05-29T23:37:07.022Z,17.00
2019-05-29T23:39:35.668Z,17.00
2019-05-29T23:42:23.742Z,17.00
2019-05-29T23:44:52.834Z,16.90
2019-05-29T23:47:22.475Z,16.90
2019-05-29T23:49:50.980Z,16.90
2019-05-29T23:52:19.463Z,16.90
2019-05-29T23:54:47.878Z,16.80
2019-05-29T23:57:16.287Z,16.80
2019-05-29T23:59:44.713Z,16.80
